This is the latest recevied weather packets stored in our database for station/object KC2BRB-1. If no packets are shown the sender has not sent any weather packets the latest 10 day(s).
| Time | Temp. | Humidity | Pressure | Rain* | Wind** | Luminosity | Snow |
|---|---|---|---|---|---|---|---|
| 1777827495 | 23.33° C | 68% | 1016.2 hPa | 0 mm | - | - | - |
| 1777827447 | 23.89° C | 65% | 1016.2 hPa | 0 mm | - | - | - |
| 1777827148 | 23.33° C | 68% | 1016.2 hPa | 0 mm | - | - | - |
| 1777826247 | 22.78° C | 68% | 1016.3 hPa | 0 mm | - | - | - |
| 1777825947 | 22.78° C | 70% | 1016.3 hPa | 0 mm | - | - | - |
| 1777825898 | 22.78° C | 70% | 1016.3 hPa | 0 mm | - | - | - |
| 1777825648 | 22.78° C | 70% | 1016.3 hPa | 0 mm | - | - | - |
| 1777825347 | 22.22° C | 71% | 1016.3 hPa | 0 mm | - | - | - |
| 1777825047 | 22.22° C | 71% | 1016.3 hPa | 0 mm | - | - | - |
| 1777824448 | 22.78° C | 73% | 1016.3 hPa | 0 mm | - | - | - |
| 1777824147 | 22.78° C | 71% | 1016.6 hPa | 0 mm | - | - | - |
| 1777824097 | 22.78° C | 71% | 1016.6 hPa | 0 mm | - | - | - |
| 1777823850 | 22.78° C | 71% | 1016.6 hPa | 0 mm | - | - | - |
| 1777823770 | 22.22° C | 71% | 1016.6 hPa | 0 mm | - | - | - |
| 1777823248 | 22.22° C | 71% | 1016.6 hPa | 0 mm | - | - | - |
| 1777823168 | 22.22° C | 71% | 1016.7 hPa | 0 mm | - | - | - |
| 1777822647 | 22.22° C | 71% | 1016.7 hPa | 0 mm | - | - | - |
| 1777822048 | 21.67° C | 74% | 1016.4 hPa | 0 mm | - | - | - |
| 1777821747 | 21.67° C | 74% | 1016.4 hPa | 0 mm | - | - | - |
| 1777821664 | 21.67° C | 74% | 1016.4 hPa | 0 mm | - | - | - |
| 1777821148 | 21.11° C | 76% | 1016.3 hPa | 0 mm | - | - | - |
| 1777821105 | 21.11° C | 76% | 1016.3 hPa | 0 mm | - | - | - |
| 1777820548 | 20.56° C | 76% | 1016.1 hPa | 0 mm | - | - | - |
| 1777820468 | 20.56° C | 76% | 1016.1 hPa | 0 mm | - | - | - |
| 1777819948 | 21.11° C | 77% | 1016.1 hPa | 0 mm | - | - | - |
* Rain latest hour (hover to see other rain measurements)
** Current wind speed in m/s (hover to see current wind gust speed)